createdAt,value
2022-09-14T00:01:37.535Z,6.85
2022-09-14T00:04:08.321Z,6.97
2022-09-14T00:06:36.776Z,7.35
2022-09-14T00:09:06.942Z,8.07
2022-09-14T00:11:38.292Z,10.10
2022-09-14T00:14:07.501Z,8.02
2022-09-14T00:16:39.730Z,6.70
2022-09-14T00:19:14.489Z,5.82
2022-09-14T00:21:42.850Z,6.05
2022-09-14T00:24:12.712Z,6.22
2022-09-14T00:26:40.670Z,6.72
2022-09-14T00:29:08.678Z,6.05
2022-09-14T00:31:40.281Z,5.97
2022-09-14T00:34:12.828Z,6.20
2022-09-14T00:36:44.964Z,8.45
2022-09-14T00:39:13.635Z,9.82
2022-09-14T00:41:44.461Z,7.78
2022-09-14T00:44:45.543Z,7.88
2022-09-14T00:47:17.258Z,6.78
2022-09-14T00:49:47.343Z,7.10
2022-09-14T00:52:19.134Z,6.20
2022-09-14T00:54:50.823Z,6.30
2022-09-14T00:57:20.178Z,6.50
2022-09-14T00:59:51.152Z,6.85
2022-09-14T01:02:22.768Z,7.15
2022-09-14T01:04:51.807Z,6.30
2022-09-14T01:07:34.809Z,6.68
2022-09-14T01:10:15.162Z,6.47
2022-09-14T01:12:53.151Z,6.45
2022-09-14T01:15:26.933Z,5.90
2022-09-14T01:18:08.456Z,6.45
2022-09-14T01:20:40.939Z,6.00
2022-09-14T01:23:14.850Z,7.20
2022-09-14T01:26:08.190Z,8.05
2022-09-14T01:28:43.525Z,6.63
2022-09-14T01:31:18.097Z,6.03
2022-09-14T01:33:52.828Z,7.20
2022-09-14T01:36:22.663Z,6.80
2022-09-14T01:38:54.524Z,6.15
2022-09-14T01:41:31.317Z,7.10
2022-09-14T01:44:04.647Z,6.75
2022-09-14T01:46:39.976Z,6.50
2022-09-14T01:49:13.113Z,6.68
2022-09-14T01:51:45.343Z,6.32
2022-09-14T01:54:26.185Z,5.97
2022-09-14T01:57:00.137Z,6.22
2022-09-14T01:59:33.793Z,6.35
2022-09-14T02:02:07.398Z,6.85
2022-09-14T02:04:49.392Z,6.95
2022-09-14T02:07:18.776Z,6.78
2022-09-14T02:09:48.333Z,6.78
2022-09-14T02:12:17.171Z,6.35
2022-09-14T02:14:48.196Z,6.18
2022-09-14T02:17:16.469Z,6.80
2022-09-14T02:19:49.835Z,7.13
2022-09-14T02:22:17.866Z,6.97
2022-09-14T02:24:46.225Z,6.93
2022-09-14T02:27:14.103Z,7.60
2022-09-14T02:29:42.195Z,7.75
2022-09-14T02:32:21.183Z,7.20
2022-09-14T02:34:59.304Z,7.35
2022-09-14T02:37:38.613Z,7.32
2022-09-14T02:40:16.556Z,7.03
2022-09-14T02:42:52.478Z,7.15
2022-09-14T02:45:26.008Z,7.57
2022-09-14T02:48:03.286Z,7.35
2022-09-14T02:50:37.815Z,7.93
2022-09-14T02:53:11.943Z,7.80
2022-09-14T02:55:47.700Z,7.53
2022-09-14T02:58:16.506Z,7.50
2022-09-14T03:00:47.227Z,7.43
2022-09-14T03:03:19.074Z,7.50
2022-09-14T03:05:47.670Z,7.63
2022-09-14T03:08:16.110Z,7.47
2022-09-14T03:10:44.946Z,7.93
2022-09-14T03:13:13.298Z,8.07
2022-09-14T03:15:41.657Z,8.35
2022-09-14T03:18:14.094Z,7.82
2022-09-14T03:20:44.364Z,8.02
2022-09-14T03:23:13.905Z,8.00
2022-09-14T03:25:43.905Z,6.80
2022-09-14T03:28:13.310Z,6.45
2022-09-14T03:30:41.475Z,8.52
2022-09-14T03:33:09.401Z,7.88
2022-09-14T03:35:37.355Z,6.80
2022-09-14T03:38:06.738Z,7.30
2022-09-14T03:40:34.780Z,7.82
2022-09-14T03:43:02.757Z,7.15
2022-09-14T03:45:30.648Z,7.20
2022-09-14T03:47:58.631Z,7.13
2022-09-14T03:50:26.585Z,6.90
2022-09-14T03:52:54.603Z,6.72
2022-09-14T03:55:24.086Z,5.85
2022-09-14T03:57:55.192Z,6.47
2022-09-14T04:00:24.011Z,6.53
2022-09-14T04:02:52.041Z,6.80
2022-09-14T04:05:22.010Z,6.93
2022-09-14T04:07:50.059Z,6.95
2022-09-14T04:10:18.166Z,6.55
2022-09-14T04:12:47.442Z,6.55
2022-09-14T04:15:15.407Z,5.88
2022-09-14T04:17:43.316Z,6.28
2022-09-14T04:20:11.596Z,5.85
2022-09-14T04:22:39.557Z,6.68
2022-09-14T04:25:08.246Z,8.73
2022-09-14T04:27:36.300Z,8.23
2022-09-14T04:30:07.252Z,7.20
2022-09-14T04:32:35.224Z,6.60
2022-09-14T04:35:03.199Z,6.50
2022-09-14T04:37:32.969Z,7.15
2022-09-14T04:40:01.199Z,7.78
2022-09-14T04:42:30.971Z,8.43
2022-09-14T04:44:58.882Z,7.65
2022-09-14T04:47:30.315Z,6.90
2022-09-14T04:49:58.470Z,6.70
2022-09-14T04:52:26.484Z,7.45
2022-09-14T04:54:54.473Z,7.45
2022-09-14T04:57:22.681Z,6.70
2022-09-14T04:59:50.661Z,7.00
2022-09-14T05:02:18.797Z,6.82
2022-09-14T05:04:48.187Z,6.57
2022-09-14T05:07:16.184Z,6.47
2022-09-14T05:09:44.258Z,5.57
2022-09-14T05:12:12.134Z,5.65
2022-09-14T05:14:40.123Z,6.30
2022-09-14T05:17:08.242Z,6.85
2022-09-14T05:19:36.130Z,6.53
2022-09-14T05:22:05.717Z,5.30
2022-09-14T05:24:33.783Z,6.07
2022-09-14T05:27:02.381Z,5.40
2022-09-14T05:29:32.028Z,5.95
2022-09-14T05:32:00.227Z,5.20
2022-09-14T05:34:28.165Z,5.25
2022-09-14T05:36:56.081Z,5.68
2022-09-14T05:39:26.035Z,4.95
2022-09-14T05:41:53.912Z,5.00
2022-09-14T05:44:21.831Z,5.57
2022-09-14T05:46:49.794Z,4.90
2022-09-14T05:49:17.801Z,5.00
2022-09-14T05:51:45.737Z,5.03
2022-09-14T05:54:13.696Z,5.72
2022-09-14T05:56:43.129Z,5.97
2022-09-14T05:59:11.946Z,5.78
2022-09-14T06:01:40.045Z,5.85
2022-09-14T06:04:08.047Z,5.65
2022-09-14T06:06:36.015Z,4.93
2022-09-14T06:09:05.291Z,5.28
2022-09-14T06:11:36.301Z,5.95
2022-09-14T06:14:06.427Z,5.00
2022-09-14T06:16:34.839Z,3.92
2022-09-14T06:19:02.944Z,5.10
2022-09-14T06:21:32.289Z,5.05
2022-09-14T06:24:00.823Z,4.18
2022-09-14T06:26:28.832Z,4.38
2022-09-14T06:28:56.812Z,4.20
2022-09-14T06:31:26.612Z,5.00
2022-09-14T06:33:55.107Z,3.80
2022-09-14T06:36:26.410Z,4.72
2022-09-14T06:38:55.373Z,4.80
2022-09-14T06:41:26.907Z,4.78
2022-09-14T06:43:57.941Z,4.20
2022-09-14T06:46:29.920Z,4.40
2022-09-14T06:49:00.824Z,3.83
2022-09-14T06:51:30.551Z,4.30
2022-09-14T06:54:00.575Z,4.93
2022-09-14T06:56:29.273Z,4.53
2022-09-14T06:58:57.218Z,4.80
2022-09-14T07:01:26.013Z,3.05
2022-09-14T07:03:55.818Z,3.55
2022-09-14T07:06:26.487Z,3.53
2022-09-14T07:08:55.794Z,3.47
2022-09-14T07:11:25.859Z,3.28
2022-09-14T07:13:55.705Z,3.22
2022-09-14T07:16:24.534Z,3.40
2022-09-14T07:18:55.543Z,2.58
2022-09-14T07:21:24.167Z,3.17
2022-09-14T07:23:52.179Z,2.58
2022-09-14T07:26:21.497Z,2.85
2022-09-14T07:28:55.289Z,3.10
2022-09-14T07:31:25.644Z,2.97
2022-09-14T07:33:55.895Z,2.88
2022-09-14T07:36:25.181Z,3.13
2022-09-14T07:38:53.714Z,3.25
2022-09-14T07:41:22.323Z,3.88
2022-09-14T07:43:51.456Z,4.20
2022-09-14T07:46:20.164Z,3.85
2022-09-14T07:48:49.993Z,2.78
2022-09-14T07:51:19.447Z,2.45
2022-09-14T07:53:47.474Z,2.40
2022-09-14T07:56:17.047Z,2.53
2022-09-14T07:58:45.574Z,3.10
2022-09-14T08:01:17.985Z,2.80
2022-09-14T08:03:49.056Z,2.53
2022-09-14T08:06:20.904Z,2.90
2022-09-14T08:08:50.842Z,2.53
2022-09-14T08:11:21.200Z,3.08
2022-09-14T08:13:52.626Z,2.60
2022-09-14T08:16:21.695Z,3.15
2022-09-14T08:18:53.848Z,2.50
2022-09-14T08:21:23.961Z,3.78
2022-09-14T08:23:52.277Z,2.47
2022-09-14T08:26:22.183Z,2.00
2022-09-14T08:28:51.724Z,2.95
2022-09-14T08:31:21.965Z,2.50
2022-09-14T08:33:51.805Z,3.20
2022-09-14T08:36:25.283Z,2.85
2022-09-14T08:38:53.488Z,2.78
2022-09-14T08:41:29.843Z,2.90
2022-09-14T08:44:03.205Z,2.65
2022-09-14T08:46:35.611Z,2.38
2022-09-14T08:49:06.637Z,2.40
2022-09-14T08:51:36.361Z,2.63
2022-09-14T08:54:04.328Z,3.20
2022-09-14T08:56:34.824Z,2.55
2022-09-14T08:59:19.147Z,2.88
2022-09-14T09:01:55.593Z,2.30
2022-09-14T09:04:34.176Z,2.65
2022-09-14T09:07:13.107Z,4.32
2022-09-14T09:09:45.580Z,4.18
2022-09-14T09:12:17.017Z,2.28
2022-09-14T09:14:49.603Z,1.83
2022-09-14T09:17:21.731Z,2.67
2022-09-14T09:20:05.293Z,2.10
2022-09-14T09:22:41.267Z,3.30
2022-09-14T09:25:17.197Z,3.67
2022-09-14T09:27:45.171Z,2.42
2022-09-14T09:30:15.657Z,4.75
2022-09-14T09:32:44.135Z,5.70
2022-09-14T09:35:16.431Z,3.45
2022-09-14T09:37:46.087Z,3.85
2022-09-14T09:40:19.779Z,4.63
2022-09-14T09:43:10.996Z,3.13
2022-09-14T09:45:50.963Z,5.97
2022-09-14T09:48:21.633Z,5.28
2022-09-14T09:50:52.899Z,2.53
2022-09-14T09:53:24.583Z,3.90
2022-09-14T09:55:52.868Z,3.50
2022-09-14T09:58:39.789Z,3.85
2022-09-14T10:01:12.544Z,3.05
2022-09-14T10:03:42.081Z,5.53
2022-09-14T10:06:12.323Z,8.10
2022-09-14T10:08:46.776Z,3.42
2022-09-14T10:11:33.978Z,2.40
2022-09-14T10:14:02.070Z,3.20
2022-09-14T10:16:37.823Z,5.85
2022-09-14T10:19:15.120Z,3.95
2022-09-14T10:22:25.687Z,8.20
2022-09-14T10:25:02.097Z,6.22
2022-09-14T10:27:42.542Z,4.55
2022-09-14T10:30:19.312Z,3.55
2022-09-14T10:32:56.134Z,2.30
2022-09-14T10:35:27.278Z,6.20
2022-09-14T10:38:06.575Z,5.18
2022-09-14T10:40:38.944Z,2.30
2022-09-14T10:43:15.521Z,15.65
2022-09-14T10:45:50.509Z,13.63
2022-09-14T10:48:51.583Z,2.30
2022-09-14T10:51:43.818Z,4.85
2022-09-14T10:54:27.070Z,5.32
2022-09-14T10:57:08.904Z,7.07
2022-09-14T10:59:49.769Z,3.03
2022-09-14T11:02:48.274Z,8.55
2022-09-14T11:05:21.704Z,6.72
2022-09-14T11:08:02.226Z,3.38
2022-09-14T11:10:37.537Z,3.17
2022-09-14T11:13:34.014Z,2.40
2022-09-14T11:16:15.587Z,9.13
2022-09-14T11:18:54.902Z,2.35
2022-09-14T11:21:33.249Z,9.13
2022-09-14T11:24:07.647Z,2.35
2022-09-14T11:26:42.566Z,13.25
2022-09-14T11:29:20.097Z,17.00
2022-09-14T11:32:16.955Z,10.02
2022-09-14T11:34:45.173Z,2.72
2022-09-14T11:37:17.487Z,4.72
2022-09-14T11:39:49.856Z,8.30
2022-09-14T11:42:23.454Z,6.53
2022-09-14T11:45:00.318Z,24.53
2022-09-14T11:47:30.143Z,17.98
2022-09-14T11:50:03.236Z,6.57
2022-09-14T11:52:33.117Z,6.43
2022-09-14T11:55:03.017Z,2.80
2022-09-14T11:57:32.885Z,5.30
2022-09-14T12:00:07.536Z,19.00
2022-09-14T12:03:00.569Z,5.95
2022-09-14T12:05:32.325Z,19.58
2022-09-14T12:08:03.536Z,9.80
2022-09-14T12:10:32.125Z,24.67
2022-09-14T12:13:21.009Z,32.20
2022-09-14T12:16:03.469Z,5.80
2022-09-14T12:18:32.331Z,7.85
2022-09-14T12:21:07.424Z,5.50
2022-09-14T12:23:48.222Z,6.30
2022-09-14T12:26:37.335Z,14.77
2022-09-14T12:29:25.846Z,9.63
2022-09-14T12:32:05.325Z,11.60
2022-09-14T12:34:34.460Z,10.35
2022-09-14T12:37:31.506Z,12.23
2022-09-14T12:40:32.813Z,3.00
2022-09-14T12:43:48.767Z,3.30
2022-09-14T12:46:39.594Z,8.95
2022-09-14T12:49:29.082Z,6.93
2022-09-14T12:52:00.733Z,4.22
2022-09-14T12:54:41.543Z,14.52
2022-09-14T12:57:23.036Z,3.05
2022-09-14T12:59:56.695Z,4.88
2022-09-14T13:02:57.271Z,7.30
2022-09-14T13:05:29.890Z,3.70
2022-09-14T13:07:58.532Z,9.07
2022-09-14T13:10:31.552Z,3.03
2022-09-14T13:13:01.482Z,11.57
2022-09-14T13:15:33.746Z,6.72
2022-09-14T13:18:03.222Z,6.70
2022-09-14T13:20:35.043Z,8.32
2022-09-14T13:23:04.503Z,3.38
2022-09-14T13:25:35.423Z,7.28
2022-09-14T13:28:05.911Z,8.02
2022-09-14T13:30:35.798Z,3.20
2022-09-14T13:33:05.042Z,2.65
2022-09-14T13:35:39.319Z,2.63
2022-09-14T13:38:10.258Z,2.75
2022-09-14T13:40:38.821Z,2.67
2022-09-14T13:43:07.326Z,3.05
2022-09-14T13:45:37.068Z,4.72
2022-09-14T13:48:06.543Z,3.72
2022-09-14T13:50:36.265Z,3.20
2022-09-14T13:53:04.698Z,2.63
2022-09-14T13:55:44.942Z,18.20
2022-09-14T13:58:17.121Z,3.47
2022-09-14T14:00:57.417Z,2.70
2022-09-14T14:03:34.507Z,3.33
2022-09-14T14:06:17.890Z,3.75
2022-09-14T14:08:45.972Z,5.53
2022-09-14T14:11:13.968Z,4.70
2022-09-14T14:13:41.992Z,3.92
2022-09-14T14:16:21.483Z,3.38
2022-09-14T14:18:54.567Z,3.20
2022-09-14T14:21:30.762Z,3.75
2022-09-14T14:24:27.502Z,2.92
2022-09-14T14:26:57.696Z,2.25
2022-09-14T14:29:26.896Z,3.05
2022-09-14T14:31:57.048Z,2.92
2022-09-14T14:34:27.269Z,3.13
2022-09-14T14:36:57.690Z,2.92
2022-09-14T14:39:26.777Z,2.90
2022-09-14T14:41:56.010Z,3.80
2022-09-14T14:44:28.242Z,3.97
2022-09-14T14:46:56.868Z,5.10
2022-09-14T14:49:25.235Z,7.20
2022-09-14T14:51:53.698Z,6.60
2022-09-14T14:54:23.007Z,7.63
2022-09-14T14:56:52.375Z,8.98
2022-09-14T14:59:29.604Z,7.53
2022-09-14T15:01:58.524Z,9.95
2022-09-14T15:04:26.974Z,9.23
2022-09-14T15:06:55.397Z,10.45
2022-09-14T15:09:27.591Z,15.82
2022-09-14T15:11:56.172Z,15.55
2022-09-14T15:14:27.877Z,19.13
2022-09-14T15:17:00.082Z,27.52
2022-09-14T15:19:28.879Z,21.15
2022-09-14T15:22:01.073Z,28.70
2022-09-14T15:24:31.381Z,27.17
2022-09-14T15:26:59.592Z,36.85
2022-09-14T15:29:27.762Z,32.13
2022-09-14T15:31:56.434Z,32.35
2022-09-14T15:34:24.812Z,33.15
2022-09-14T15:36:54.367Z,31.98
2022-09-14T15:39:24.655Z,25.35
2022-09-14T15:41:54.667Z,19.67
2022-09-14T15:44:22.993Z,19.90
2022-09-14T15:46:51.586Z,18.13
2022-09-14T15:49:21.535Z,15.13
2022-09-14T15:51:56.455Z,16.42
2022-09-14T15:54:26.504Z,14.52
2022-09-14T15:56:59.407Z,12.18
2022-09-14T15:59:28.282Z,8.85
2022-09-14T16:01:57.370Z,11.65
2022-09-14T16:04:25.508Z,8.25
2022-09-14T16:06:53.515Z,7.88
2022-09-14T16:09:22.628Z,8.57
2022-09-14T16:11:50.648Z,6.97
2022-09-14T16:14:19.985Z,8.10
2022-09-14T16:16:48.075Z,12.77
2022-09-14T16:19:16.395Z,8.88
2022-09-14T16:21:44.497Z,6.53
2022-09-14T16:24:15.277Z,6.88
2022-09-14T16:26:43.564Z,6.43
2022-09-14T16:29:12.837Z,6.28
2022-09-14T16:31:44.111Z,6.05
2022-09-14T16:34:15.085Z,6.43
2022-09-14T16:36:43.169Z,5.65
2022-09-14T16:39:13.255Z,5.43
2022-09-14T16:41:42.248Z,5.70
2022-09-14T16:44:14.444Z,5.65
2022-09-14T16:46:44.277Z,5.65
2022-09-14T16:49:12.800Z,4.07
2022-09-14T16:51:43.758Z,4.60
2022-09-14T16:54:15.434Z,7.25
2022-09-14T16:56:43.663Z,8.43
2022-09-14T16:59:12.383Z,6.40
2022-09-14T17:01:44.982Z,14.02
2022-09-14T17:04:16.112Z,13.75
2022-09-14T17:06:45.969Z,15.48
2022-09-14T17:09:17.024Z,8.50
2022-09-14T17:11:45.337Z,6.65
2022-09-14T17:14:16.393Z,11.38
2022-09-14T17:16:44.957Z,12.35
2022-09-14T17:19:14.781Z,10.07
2022-09-14T17:21:45.216Z,7.60
2022-09-14T17:24:14.400Z,5.88
2022-09-14T17:26:43.570Z,5.38
2022-09-14T17:29:12.175Z,5.43
2022-09-14T17:31:45.030Z,6.13
2022-09-14T17:34:16.677Z,6.75
2022-09-14T17:36:44.828Z,7.95
2022-09-14T17:39:14.349Z,6.88
2022-09-14T17:41:44.162Z,8.82
2022-09-14T17:44:13.682Z,7.88
2022-09-14T17:46:51.721Z,8.32
2022-09-14T17:49:23.005Z,6.70
2022-09-14T17:51:54.063Z,6.90
2022-09-14T17:54:22.137Z,6.78
2022-09-14T17:56:50.144Z,7.22
2022-09-14T17:59:20.381Z,6.97
2022-09-14T18:01:49.077Z,6.13
2022-09-14T18:04:17.500Z,7.45
2022-09-14T18:06:49.217Z,5.63
2022-09-14T18:09:18.978Z,6.05
2022-09-14T18:11:48.401Z,4.90
2022-09-14T18:14:16.918Z,5.10
2022-09-14T18:16:45.714Z,7.40
2022-09-14T18:19:14.913Z,7.45
2022-09-14T18:21:44.418Z,7.82
2022-09-14T18:24:15.079Z,7.22
2022-09-14T18:26:43.641Z,6.75
2022-09-14T18:29:15.166Z,5.10
2022-09-14T18:31:44.130Z,4.50
2022-09-14T18:34:12.188Z,3.92
2022-09-14T18:36:40.244Z,4.90
2022-09-14T18:39:08.135Z,3.90
2022-09-14T18:41:37.505Z,4.50
2022-09-14T18:44:05.936Z,4.22
2022-09-14T18:46:34.263Z,3.95
2022-09-14T18:49:03.351Z,3.95
2022-09-14T18:51:32.689Z,3.58
2022-09-14T18:54:03.606Z,3.47
2022-09-14T18:56:33.300Z,3.70
2022-09-14T18:59:04.167Z,3.42
2022-09-14T19:01:32.232Z,3.92
2022-09-14T19:04:00.602Z,3.78
2022-09-14T19:06:28.608Z,3.92
2022-09-14T19:08:56.852Z,4.20
2022-09-14T19:11:27.499Z,4.20
2022-09-14T19:14:01.356Z,4.13
2022-09-14T19:16:31.489Z,4.53
2022-09-14T19:18:59.870Z,5.68
2022-09-14T19:21:29.385Z,4.57
2022-09-14T19:24:00.421Z,4.40
2022-09-14T19:26:30.688Z,5.05
2022-09-14T19:29:00.896Z,4.88
2022-09-14T19:31:31.503Z,4.30
2022-09-14T19:33:59.846Z,4.80
2022-09-14T19:36:28.827Z,3.95
2022-09-14T19:38:58.112Z,5.13
2022-09-14T19:41:26.401Z,4.75
2022-09-14T19:43:54.364Z,5.75
2022-09-14T19:46:23.324Z,5.53
2022-09-14T19:48:53.221Z,5.55
2022-09-14T19:51:22.791Z,5.70
2022-09-14T19:53:52.355Z,6.65
2022-09-14T19:56:22.354Z,6.95
2022-09-14T19:58:52.329Z,4.78
2022-09-14T20:01:22.046Z,5.30
2022-09-14T20:03:50.962Z,6.65
2022-09-14T20:06:23.612Z,5.70
2022-09-14T20:08:53.161Z,6.57
2022-09-14T20:11:23.467Z,5.15
2022-09-14T20:13:53.996Z,6.20
2022-09-14T20:16:24.332Z,7.13
2022-09-14T20:18:53.206Z,6.05
2022-09-14T20:21:25.191Z,6.40
2022-09-14T20:24:14.682Z,5.85
2022-09-14T20:26:42.969Z,6.45
2022-09-14T20:29:11.150Z,7.22
2022-09-14T20:31:39.171Z,7.40
2022-09-14T20:34:07.176Z,7.35
2022-09-14T20:36:36.660Z,6.70
2022-09-14T20:39:05.641Z,6.55
2022-09-14T20:41:35.812Z,5.97
2022-09-14T20:44:05.076Z,6.45
2022-09-14T20:46:36.087Z,6.10
2022-09-14T20:49:05.744Z,6.80
2022-09-14T20:51:33.761Z,6.22
2022-09-14T20:54:03.278Z,6.22
2022-09-14T20:56:32.720Z,5.95
2022-09-14T20:59:02.405Z,6.18
2022-09-14T21:01:33.155Z,6.47
2022-09-14T21:04:04.513Z,6.50
2022-09-14T21:06:32.832Z,6.75
2022-09-14T21:09:02.395Z,5.68
2022-09-14T21:11:31.066Z,7.57
2022-09-14T21:13:59.260Z,7.85
2022-09-14T21:16:28.881Z,7.53
2022-09-14T21:18:58.219Z,8.30
2022-09-14T21:21:26.657Z,7.97
2022-09-14T21:23:55.876Z,7.45
2022-09-14T21:26:26.272Z,7.97
2022-09-14T21:28:57.411Z,9.05
2022-09-14T21:31:26.693Z,8.70
2022-09-14T21:33:57.408Z,9.32
2022-09-14T21:36:27.377Z,9.50
2022-09-14T21:38:57.857Z,9.35
2022-09-14T21:41:29.220Z,9.32
2022-09-14T21:43:58.032Z,7.75
2022-09-14T21:46:26.872Z,7.15
2022-09-14T21:48:56.000Z,8.07
2022-09-14T21:51:26.982Z,7.97
2022-09-14T21:53:57.059Z,7.57
2022-09-14T21:56:28.160Z,7.75
2022-09-14T21:58:57.755Z,7.43
2022-09-14T22:01:26.341Z,7.13
2022-09-14T22:03:55.831Z,6.70
2022-09-14T22:06:25.931Z,7.40
2022-09-14T22:08:53.993Z,6.93
2022-09-14T22:11:24.427Z,8.20
2022-09-14T22:13:56.148Z,6.95
2022-09-14T22:16:25.455Z,7.70
2022-09-14T22:18:55.743Z,8.25
2022-09-14T22:21:25.147Z,7.95
2022-09-14T22:23:56.983Z,7.75
2022-09-14T22:26:26.168Z,8.38
2022-09-14T22:28:56.095Z,8.23
2022-09-14T22:31:25.096Z,7.55
2022-09-14T22:33:55.536Z,6.22
2022-09-14T22:36:24.319Z,7.32
2022-09-14T22:38:53.231Z,6.38
2022-09-14T22:41:22.711Z,4.57
2022-09-14T22:43:51.296Z,5.78
2022-09-14T22:46:21.537Z,6.45
2022-09-14T22:48:50.460Z,6.15
2022-09-14T22:51:23.646Z,4.60
2022-09-14T22:53:52.119Z,5.70
2022-09-14T22:56:23.244Z,4.35
2022-09-14T22:58:51.872Z,4.03
2022-09-14T23:01:23.807Z,4.30
2022-09-14T23:03:57.214Z,4.05
2022-09-14T23:06:29.623Z,4.60
2022-09-14T23:08:58.225Z,3.90
2022-09-14T23:11:26.475Z,4.75
2022-09-14T23:13:54.706Z,4.18
2022-09-14T23:16:26.720Z,4.43
2022-09-14T23:18:56.598Z,3.58
2022-09-14T23:21:25.032Z,4.55
2022-09-14T23:23:53.866Z,3.95
2022-09-14T23:26:22.195Z,3.78
2022-09-14T23:28:54.642Z,4.00
2022-09-14T23:31:24.934Z,4.00
2022-09-14T23:33:54.443Z,6.03
2022-09-14T23:36:23.771Z,7.43
2022-09-14T23:38:52.783Z,9.32
2022-09-14T23:41:23.277Z,5.45
2022-09-14T23:43:51.748Z,10.60
2022-09-14T23:46:20.598Z,13.55
2022-09-14T23:48:50.871Z,11.13
2022-09-14T23:51:19.552Z,10.05
2022-09-14T23:53:47.762Z,7.47
2022-09-14T23:56:16.443Z,12.50
2022-09-14T23:58:44.813Z,8.70
